Time;durP1;ratioP1;P1;durP2;ratioP2;P2;SDS_P1;SDS_P2;PMS_P1;PMS_P2;Temp;Humidity;BMP_temperature;BMP_pressure;BME280_temperature;BME280_humidity;BME280_pressure;Samples;Min_cycle;Max_cycle;Signal;HPM_P1;HPM_P2
2024/04/07 00:00:22;;;;;;;9.77;2.60;;;;;;;;;;5127536;28;20036;-56
2024/04/07 00:02:56;;;;;;;9.20;3.13;;;;;;;;;;5125126;28;20032;-57
2024/04/07 00:05:22;;;;;;;5.13;2.40;;;;;;;;;;5122619;28;20027;-57
2024/04/07 00:07:48;;;;;;;;;;;;;;;;;;5130254;28;20023;-57
2024/04/07 00:10:14;;;;;;;6.97;2.40;;;;;;;;;;5133490;28;19911;-52
2024/04/07 00:12:39;;;;;;;9.73;3.83;;;;;;;;;;5135605;28;20027;-55
2024/04/07 00:15:07;;;;;;;11.30;4.22;;;;;;;;;;5131589;28;20085;-57
2024/04/07 00:17:33;;;;;;;13.43;3.93;;;;;;;;;;5129306;28;20047;-54
2024/04/07 00:19:58;;;;;;;7.07;2.78;;;;;;;;;;5129940;28;20024;-56
2024/04/07 00:22:24;;;;;;;9.32;2.33;;;;;;;;;;5133296;28;20036;-56
2024/04/07 00:24:49;;;;;;;11.85;2.35;;;;;;;;;;5132092;28;20054;-53
2024/04/07 00:27:16;;;;;;;15.95;5.72;;;;;;;;;;5134798;28;20035;-57
2024/04/07 00:29:43;;;;;;;9.77;2.58;;;;;;;;;;5131679;28;20062;-54
2024/04/07 00:32:09;;;;;;;6.50;2.50;;;;;;;;;;5129757;28;20079;-52
2024/04/07 00:34:35;;;;;;;5.53;2.42;;;;;;;;;;5134256;28;20035;-55
2024/04/07 00:37:00;;;;;;;12.30;3.10;;;;;;;;;;5130638;28;20091;-54
2024/04/07 00:39:26;;;;;;;15.07;4.57;;;;;;;;;;5128381;28;20032;-55
2024/04/07 00:41:51;;;;;;;34.47;12.40;;;;;;;;;;5131150;28;20034;-53
2024/04/07 00:44:16;;;;;;;39.53;14.75;;;;;;;;;;5134336;28;20039;-55
2024/04/07 00:46:42;;;;;;;17.20;6.20;;;;;;;;;;5136821;28;20035;-57
2024/04/07 00:49:07;;;;;;;30.03;8.47;;;;;;;;;;5137277;28;20708;-54
2024/04/07 00:51:34;;;;;;;43.67;15.15;;;;;;;;;;5137345;28;20263;-58
2024/04/07 00:54:00;;;;;;;19.43;7.60;;;;;;;;;;5137377;28;20047;-53
2024/04/07 00:56:25;;;;;;;17.65;5.95;;;;;;;;;;5136830;28;20063;-55
2024/04/07 00:58:50;;;;;;;25.85;9.48;;;;;;;;;;5136748;28;20035;-57
2024/04/07 01:01:16;;;;;;;30.27;12.63;;;;;;;;;;5137120;28;20027;-52
2024/04/07 01:03:41;;;;;;;26.63;9.73;;;;;;;;;;5137409;28;20040;-55
2024/04/07 01:06:08;;;;;;;24.98;9.32;;;;;;;;;;5136962;28;20024;-56
2024/04/07 01:08:34;;;;;;;43.72;17.25;;;;;;;;;;5136425;28;20034;-55
2024/04/07 01:11:01;;;;;;;35.27;10.13;;;;;;;;;;5137484;28;20059;-55
2024/04/07 01:13:27;;;;;;;7.67;2.23;;;;;;;;;;5137316;28;20039;-56
2024/04/07 01:15:53;;;;;;;20.07;5.53;;;;;;;;;;5137407;28;20030;-56
2024/04/07 01:18:19;;;;;;;;;;;;;;;;;;5136931;28;20031;-55
2024/04/07 01:20:44;;;;;;;11.77;4.03;;;;;;;;;;5133269;28;19916;-57
2024/04/07 01:23:16;;;;;;;10.37;3.23;;;;;;;;;;5133995;28;20049;-54
2024/04/07 01:25:41;;;;;;;13.93;3.97;;;;;;;;;;5134046;28;20031;-55
2024/04/07 01:28:07;;;;;;;22.57;5.13;;;;;;;;;;5133504;28;20054;-52
2024/04/07 01:30:32;;;;;;;7.40;2.75;;;;;;;;;;5134007;28;20036;-55
2024/04/07 01:32:58;;;;;;;6.17;2.07;;;;;;;;;;5133780;28;20035;-53
2024/04/07 01:35:23;;;;;;;6.03;1.85;;;;;;;;;;5133621;28;20430;-55
2024/04/07 01:37:48;;;;;;;11.77;3.73;;;;;;;;;;5131860;28;20069;-52
2024/04/07 01:40:14;;;;;;;10.23;2.72;;;;;;;;;;5133854;28;20028;-56
2024/04/07 01:42:40;;;;;;;4.57;1.70;;;;;;;;;;5132901;28;20099;-54
2024/04/07 01:45:06;;;;;;;13.70;4.38;;;;;;;;;;5130991;28;20030;-55
2024/04/07 01:47:32;;;;;;;8.30;3.80;;;;;;;;;;5133473;28;20040;-55
2024/04/07 01:49:58;;;;;;;4.95;2.00;;;;;;;;;;5133117;28;20043;-52
2024/04/07 01:52:23;;;;;;;7.82;1.70;;;;;;;;;;5133133;28;20036;-55
2024/04/07 01:54:48;;;;;;;12.10;2.80;;;;;;;;;;5132793;28;20047;-55
2024/04/07 01:57:14;;;;;;;7.80;2.47;;;;;;;;;;5133310;28;20047;-54
2024/04/07 01:59:39;;;;;;;19.95;9.13;;;;;;;;;;5133236;28;20082;-54
2024/04/07 02:02:05;;;;;;;17.20;6.90;;;;;;;;;;5134025;28;20024;-54
2024/04/07 02:04:31;;;;;;;13.30;4.22;;;;;;;;;;5133091;28;20049;-54
2024/04/07 02:06:56;;;;;;;9.07;3.25;;;;;;;;;;5115556;28;20031;-55
2024/04/07 02:09:22;;;;;;;16.45;6.13;;;;;;;;;;5132639;28;20026;-55
2024/04/07 02:11:48;;;;;;;23.77;8.23;;;;;;;;;;5133593;28;20048;-54
2024/04/07 02:14:13;;;;;;;27.35;10.95;;;;;;;;;;5132709;28;20039;-55
2024/04/07 02:16:39;;;;;;;16.65;5.82;;;;;;;;;;5132556;28;20063;-51
2024/04/07 02:19:06;;;;;;;12.15;4.95;;;;;;;;;;5132260;28;20032;-56
2024/04/07 02:21:31;;;;;;;19.83;4.97;;;;;;;;;;5133060;28;20050;-54
2024/04/07 02:23:57;;;;;;;15.63;5.13;;;;;;;;;;5133087;28;20027;-53
2024/04/07 02:26:22;;;;;;;9.05;2.05;;;;;;;;;;5133383;28;20091;-52
2024/04/07 02:28:48;;;;;;;5.63;2.47;;;;;;;;;;5131456;28;20024;-54
2024/04/07 02:31:13;;;;;;;7.03;1.92;;;;;;;;;;5132796;28;20121;-52
2024/04/07 02:33:39;;;;;;;7.80;2.50;;;;;;;;;;5132018;28;20065;-56
2024/04/07 02:36:06;;;;;;;5.10;1.65;;;;;;;;;;5133305;28;20102;-56
2024/04/07 02:38:31;;;;;;;3.10;1.17;;;;;;;;;;5131505;28;20043;-55
2024/04/07 02:40:57;;;;;;;5.20;1.55;;;;;;;;;;5133419;28;20028;-54
2024/04/07 02:43:23;;;;;;;5.87;1.13;;;;;;;;;;5132382;28;20055;-56
2024/04/07 02:48:32;;;;;;;1.50;1.00;;;;;;;;;;5131139;28;20028;-55
2024/04/07 02:50:58;;;;;;;3.17;1.00;;;;;;;;;;5132673;28;20047;-54
2024/04/07 02:53:24;;;;;;;5.50;1.10;;;;;;;;;;5132910;28;20102;-55
2024/04/07 02:55:49;;;;;;;4.63;0.90;;;;;;;;;;5132680;28;20032;-56
2024/04/07 02:58:15;;;;;;;2.92;0.70;;;;;;;;;;5131507;28;20039;-51
2024/04/07 03:00:40;;;;;;;8.30;1.15;;;;;;;;;;5131854;28;20049;-53
2024/04/07 03:03:06;;;;;;;3.17;1.10;;;;;;;;;;5132124;28;20094;-53
2024/04/07 03:05:31;;;;;;;2.60;0.90;;;;;;;;;;5131877;28;20047;-54
2024/04/07 03:07:57;;;;;;;3.88;1.05;;;;;;;;;;5114186;28;20028;-55
2024/04/07 03:10:22;;;;;;;3.28;0.90;;;;;;;;;;5132020;28;20087;-56
2024/04/07 03:12:48;;;;;;;3.43;0.90;;;;;;;;;;5132369;28;20030;-52
2024/04/07 03:15:13;;;;;;;3.38;1.08;;;;;;;;;;5131389;28;20023;-55
2024/04/07 03:17:39;;;;;;;6.00;1.40;;;;;;;;;;5131011;28;20028;-55
2024/04/07 03:20:05;;;;;;;2.88;1.08;;;;;;;;;;5131165;28;20024;-55
2024/04/07 03:22:31;;;;;;;1.27;0.65;;;;;;;;;;5131249;28;20032;-54
2024/04/07 03:24:56;;;;;;;3.58;0.70;;;;;;;;;;5132206;28;20026;-56
2024/04/07 03:27:22;;;;;;;3.05;0.98;;;;;;;;;;5131482;28;20039;-57
2024/04/07 03:29:47;;;;;;;3.03;1.03;;;;;;;;;;5130681;28;20039;-54
2024/04/07 03:32:12;;;;;;;4.67;1.03;;;;;;;;;;5131934;28;20106;-57
2024/04/07 03:34:39;;;;;;;2.08;0.60;;;;;;;;;;5131371;28;20020;-55
2024/04/07 03:37:07;;;;;;;4.90;1.02;;;;;;;;;;5131875;28;20064;-51
2024/04/07 03:39:33;;;;;;;4.70;0.87;;;;;;;;;;5131181;28;20024;-54
2024/04/07 03:42:01;;;;;;;2.73;0.67;;;;;;;;;;5113754;28;20031;-54
2024/04/07 03:44:27;;;;;;;2.90;0.80;;;;;;;;;;5131460;28;20020;-51
2024/04/07 03:46:53;;;;;;;4.80;0.77;;;;;;;;;;5131968;28;20043;-55
2024/04/07 03:49:19;;;;;;;3.47;1.57;;;;;;;;;;5130507;28;20035;-52
2024/04/07 03:51:46;;;;;;;7.00;0.93;;;;;;;;;;5131610;28;20040;-57
2024/04/07 03:54:12;;;;;;;2.88;0.60;;;;;;;;;;5131056;28;20062;-56
2024/04/07 03:56:37;;;;;;;2.75;0.73;;;;;;;;;;5131409;28;20044;-56
2024/04/07 03:59:03;;;;;;;3.63;0.60;;;;;;;;;;5129719;28;20116;-56
2024/04/07 04:01:29;;;;;;;2.22;0.60;;;;;;;;;;5131882;28;20020;-57
2024/04/07 04:03:54;;;;;;;3.83;0.57;;;;;;;;;;5131753;28;20083;-55
2024/04/07 04:06:19;;;;;;;1.10;0.60;;;;;;;;;;5130778;28;20034;-57
2024/04/07 04:08:45;;;;;;;1.03;0.47;;;;;;;;;;5129601;28;20040;-57
2024/04/07 04:11:12;;;;;;;2.70;0.70;;;;;;;;;;5131568;28;20093;-57
2024/04/07 04:13:37;;;;;;;6.35;1.50;;;;;;;;;;5131044;28;20123;-55
2024/04/07 04:16:03;;;;;;;2.35;1.00;;;;;;;;;;5130918;28;20027;-57
2024/04/07 04:18:29;;;;;;;4.60;1.27;;;;;;;;;;5130653;28;20088;-54
2024/04/07 04:20:54;;;;;;;3.72;0.77;;;;;;;;;;5129998;28;20035;-54
2024/04/07 04:23:20;;;;;;;1.70;0.60;;;;;;;;;;5113335;28;20028;-56
2024/04/07 04:25:55;;;;;;;1.13;0.68;;;;;;;;;;5131102;28;20030;-56
2024/04/07 04:28:21;;;;;;;3.50;0.70;;;;;;;;;;5130546;28;20036;-53
2024/04/07 04:30:56;;;;;;;1.85;0.40;;;;;;;;;;5130486;28;20047;-54
2024/04/07 04:33:22;;;;;;;1.47;0.50;;;;;;;;;;5130409;28;20051;-55
2024/04/07 04:35:49;;;;;;;0.90;0.40;;;;;;;;;;5131125;28;20073;-55
2024/04/07 04:38:14;;;;;;;4.27;0.70;;;;;;;;;;5130235;28;20087;-56
2024/04/07 04:40:40;;;;;;;1.63;0.50;;;;;;;;;;5130656;28;20024;-53
2024/04/07 04:43:06;;;;;;;3.35;0.80;;;;;;;;;;5130846;28;20032;-53
2024/04/07 04:45:31;;;;;;;2.53;0.57;;;;;;;;;;5130854;28;20024;-56
2024/04/07 04:47:56;;;;;;;1.97;0.57;;;;;;;;;;5129781;28;20032;-57
2024/04/07 04:50:22;;;;;;;0.67;0.30;;;;;;;;;;5130616;28;20400;-54
2024/04/07 04:52:47;;;;;;;1.93;0.47;;;;;;;;;;5112597;28;20103;-55
2024/04/07 04:55:13;;;;;;;1.30;0.30;;;;;;;;;;5133402;28;20023;-53
2024/04/07 04:57:39;;;;;;;1.98;0.55;;;;;;;;;;5134881;28;20047;-55
2024/04/07 05:00:05;;;;;;;5.07;0.57;;;;;;;;;;5133575;28;20035;-54
2024/04/07 05:02:31;;;;;;;2.33;0.53;;;;;;;;;;5134796;28;20087;-56
2024/04/07 05:04:57;;;;;;;2.97;0.50;;;;;;;;;;5133895;28;20035;-55
2024/04/07 05:07:22;;;;;;;4.25;0.73;;;;;;;;;;5134634;28;20096;-57
2024/04/07 05:09:48;;;;;;;0.80;0.50;;;;;;;;;;5132448;28;20024;-55
2024/04/07 05:12:13;;;;;;;2.45;0.45;;;;;;;;;;5134750;28;20035;-56
2024/04/07 05:14:38;;;;;;;2.57;0.60;;;;;;;;;;5134440;28;20054;-55
2024/04/07 05:17:04;;;;;;;1.52;0.50;;;;;;;;;;5133343;28;20031;-55
2024/04/07 05:19:30;;;;;;;3.83;0.55;;;;;;;;;;5133774;28;20028;-55
2024/04/07 05:21:56;;;;;;;1.65;0.40;;;;;;;;;;5134610;28;20035;-55
2024/04/07 05:24:21;;;;;;;1.60;0.50;;;;;;;;;;5134181;28;20036;-55
2024/04/07 05:26:47;;;;;;;3.47;0.60;;;;;;;;;;5134306;28;20020;-57
2024/04/07 05:29:12;;;;;;;1.48;0.55;;;;;;;;;;5116300;28;20035;-55
2024/04/07 05:31:38;;;;;;;4.18;0.70;;;;;;;;;;5133277;28;20091;-56
2024/04/07 05:34:03;;;;;;;3.08;0.60;;;;;;;;;;5133998;28;20039;-54
2024/04/07 05:36:29;;;;;;;1.08;0.40;;;;;;;;;;5134105;28;20042;-56
2024/04/07 05:38:55;;;;;;;2.15;0.80;;;;;;;;;;5133011;28;20058;-55
2024/04/07 05:41:20;;;;;;;4.22;0.88;;;;;;;;;;5133202;28;20070;-52
2024/04/07 05:43:46;;;;;;;1.53;0.50;;;;;;;;;;5134382;28;20015;-52
2024/04/07 05:46:11;;;;;;;2.92;1.02;;;;;;;;;;5133721;28;20035;-55
2024/04/07 05:48:37;;;;;;;4.43;0.70;;;;;;;;;;5132621;28;20058;-55
2024/04/07 05:51:03;;;;;;;2.97;0.52;;;;;;;;;;5132310;28;20038;-55
2024/04/07 05:53:29;;;;;;;2.95;0.80;;;;;;;;;;5133938;28;20032;-51
2024/04/07 05:55:55;;;;;;;3.35;0.90;;;;;;;;;;5132088;28;20077;-55
2024/04/07 05:58:20;;;;;;;4.03;0.60;;;;;;;;;;5133222;28;20039;-52
2024/04/07 06:00:45;;;;;;;3.45;0.95;;;;;;;;;;5132259;28;20027;-55
2024/04/07 06:03:11;;;;;;;4.32;1.20;;;;;;;;;;5132674;28;20051;-56
2024/04/07 06:05:37;;;;;;;2.13;0.40;;;;;;;;;;5112929;28;20025;-55
2024/04/07 06:08:03;;;;;;;;;;;;;;;;;;5133837;28;20034;-53
2024/04/07 06:10:28;;;;;;;3.60;0.97;;;;;;;;;;5132869;28;19912;-55
2024/04/07 06:12:54;;;;;;;4.47;0.87;;;;;;;;;;5132609;28;20064;-54
2024/04/07 06:15:21;;;;;;;1.90;0.77;;;;;;;;;;5132705;28;20028;-56
2024/04/07 06:17:47;;;;;;;4.95;0.77;;;;;;;;;;5133236;28;20043;-54
2024/04/07 06:20:13;;;;;;;1.50;0.80;;;;;;;;;;5129981;28;20828;-53
2024/04/07 06:22:39;;;;;;;2.75;1.30;;;;;;;;;;5132560;28;20027;-56
2024/04/07 06:25:05;;;;;;;3.42;0.70;;;;;;;;;;5113478;28;20034;-55
2024/04/07 06:27:31;;;;;;;4.03;1.08;;;;;;;;;;5109538;28;20035;-57
2024/04/07 06:29:58;;;;;;;3.63;0.80;;;;;;;;;;5111641;28;20024;-56
2024/04/07 06:32:24;;;;;;;4.37;0.70;;;;;;;;;;5128351;28;20102;-57
2024/04/07 06:34:49;;;;;;;4.53;0.98;;;;;;;;;;5130986;28;20267;-55
2024/04/07 06:37:16;;;;;;;3.95;0.77;;;;;;;;;;5129295;28;20019;-58
2024/04/07 06:39:41;;;;;;;5.05;0.90;;;;;;;;;;5126731;28;20103;-54
2024/04/07 06:42:06;;;;;;;1.98;1.10;;;;;;;;;;5129609;28;20031;-57
2024/04/07 06:44:32;;;;;;;4.93;1.17;;;;;;;;;;5130884;28;20043;-55
2024/04/07 06:46:57;;;;;;;2.65;0.70;;;;;;;;;;5129850;28;20085;-56
2024/04/07 06:49:23;;;;;;;4.07;0.60;;;;;;;;;;5129648;28;20050;-53
2024/04/07 06:51:48;;;;;;;6.40;1.00;;;;;;;;;;5130082;28;20024;-57
2024/04/07 06:54:13;;;;;;;6.73;1.27;;;;;;;;;;5130186;28;20039;-55
2024/04/07 06:56:39;;;;;;;3.47;0.73;;;;;;;;;;5132541;28;20054;-56
2024/04/07 06:59:05;;;;;;;5.75;0.98;;;;;;;;;;5129755;28;20056;-55
2024/04/07 07:01:30;;;;;;;4.30;0.98;;;;;;;;;;5130910;28;20030;-56
2024/04/07 07:03:56;;;;;;;3.07;1.03;;;;;;;;;;5130207;28;20042;-57
2024/04/07 07:06:21;;;;;;;0.90;0.67;;;;;;;;;;5132735;28;20051;-52
2024/04/07 07:08:46;;;;;;;3.40;0.80;;;;;;;;;;5127173;28;20032;-55
2024/04/07 07:11:12;;;;;;;6.00;1.20;;;;;;;;;;5128307;28;20332;-56
2024/04/07 07:13:42;;;;;;;4.20;0.95;;;;;;;;;;5130401;28;20051;-55
2024/04/07 07:16:08;;;;;;;4.57;1.07;;;;;;;;;;5130822;28;20028;-54
2024/04/07 07:18:34;;;;;;;3.08;0.95;;;;;;;;;;5130286;28;20031;-51
2024/04/07 07:20:59;;;;;;;3.45;1.17;;;;;;;;;;5130661;28;20057;-55
2024/04/07 07:23:25;;;;;;;3.85;0.90;;;;;;;;;;5130069;28;20035;-56
2024/04/07 07:25:52;;;;;;;5.10;1.10;;;;;;;;;;5130412;28;20050;-57
2024/04/07 07:28:18;;;;;;;3.03;0.87;;;;;;;;;;5130176;28;20049;-55
2024/04/07 07:30:43;;;;;;;9.07;1.10;;;;;;;;;;5131273;28;20078;-55
2024/04/07 07:33:08;;;;;;;8.25;1.67;;;;;;;;;;5130279;28;20472;-55
2024/04/07 07:35:37;;;;;;;7.15;1.90;;;;;;;;;;5114202;28;20039;-53
2024/04/07 07:38:02;;;;;;;7.00;1.10;;;;;;;;;;5130591;28;20039;-53
2024/04/07 07:40:28;;;;;;;6.40;0.85;;;;;;;;;;5131113;28;20024;-53
2024/04/07 07:42:53;;;;;;;6.53;1.65;;;;;;;;;;5097430;28;20039;-57
2024/04/07 07:45:20;;;;;;;6.03;0.93;;;;;;;;;;5113548;28;20027;-55
2024/04/07 07:47:46;;;;;;;5.70;1.50;;;;;;;;;;5130374;28;20347;-56
2024/04/07 07:50:11;;;;;;;3.75;1.00;;;;;;;;;;5113219;28;20031;-55
2024/04/07 07:52:37;;;;;;;1.58;0.85;;;;;;;;;;5129332;28;20039;-56
2024/04/07 07:55:03;;;;;;;4.00;1.20;;;;;;;;;;5131521;28;20031;-53
2024/04/07 07:57:28;;;;;;;7.40;0.88;;;;;;;;;;5111128;28;20038;-53
2024/04/07 07:59:53;;;;;;;7.53;0.93;;;;;;;;;;5112995;28;20062;-55
2024/04/07 08:02:19;;;;;;;1.52;0.90;;;;;;;;;;5129751;28;20023;-55
2024/04/07 08:04:45;;;;;;;3.15;1.00;;;;;;;;;;5129802;28;20023;-53
2024/04/07 08:07:10;;;;;;;5.57;1.20;;;;;;;;;;5130255;28;20087;-57
2024/04/07 08:09:36;;;;;;;3.55;1.10;;;;;;;;;;5128197;28;20058;-55
2024/04/07 08:12:01;;;;;;;4.00;1.10;;;;;;;;;;5127709;28;20111;-56
2024/04/07 08:14:27;;;;;;;9.15;0.90;;;;;;;;;;5126147;28;20043;-54
2024/04/07 08:16:52;;;;;;;6.45;1.15;;;;;;;;;;5125432;28;20028;-55
2024/04/07 08:19:18;;;;;;;7.40;1.35;;;;;;;;;;5126537;28;20032;-56
2024/04/07 08:21:43;;;;;;;9.53;1.40;;;;;;;;;;5127490;28;20027;-56
2024/04/07 08:24:09;;;;;;;2.28;1.00;;;;;;;;;;5130392;28;20998;-53
2024/04/07 08:26:34;;;;;;;3.50;1.60;;;;;;;;;;5129079;28;20028;-52
2024/04/07 08:29:00;;;;;;;6.85;1.25;;;;;;;;;;5112478;28;20035;-56
2024/04/07 08:31:25;;;;;;;2.60;0.90;;;;;;;;;;5131909;28;20035;-57
2024/04/07 08:33:51;;;;;;;9.50;1.13;;;;;;;;;;5131299;28;20028;-56
2024/04/07 08:36:16;;;;;;;3.23;1.17;;;;;;;;;;5130629;28;20063;-54
2024/04/07 08:38:41;;;;;;;6.60;1.40;;;;;;;;;;5133773;28;20354;-54
2024/04/07 08:41:14;;;;;;;6.25;1.77;;;;;;;;;;5132874;28;20045;-54
2024/04/07 08:43:39;;;;;;;5.47;1.40;;;;;;;;;;5133501;28;20019;-56
2024/04/07 08:46:11;;;;;;;6.57;1.38;;;;;;;;;;5132111;28;20028;-54
2024/04/07 08:48:40;;;;;;;4.70;1.10;;;;;;;;;;5132837;28;20039;-52
2024/04/07 08:51:09;;;;;;;4.60;0.93;;;;;;;;;;5132253;28;20027;-55
2024/04/07 08:53:38;;;;;;;4.40;1.23;;;;;;;;;;5133870;28;20024;-54
2024/04/07 08:56:04;;;;;;;6.33;1.20;;;;;;;;;;5132776;28;20091;-56
2024/04/07 08:58:29;;;;;;;;;;;;;;;;;;5132526;28;20057;-55
2024/04/07 09:00:56;;;;;;;5.28;1.10;;;;;;;;;;5133714;28;19915;-55
2024/04/07 09:03:22;;;;;;;4.78;1.10;;;;;;;;;;5116454;28;20036;-52
2024/04/07 09:05:48;;;;;;;6.00;1.10;;;;;;;;;;5114728;28;20038;-54
2024/04/07 09:08:13;;;;;;;;;;;;;;;;;;5133158;28;20031;-57
2024/04/07 09:10:38;;;;;;;4.77;1.20;;;;;;;;;;5132392;28;19929;-55
2024/04/07 09:13:04;;;;;;;5.50;1.13;;;;;;;;;;5131467;28;20109;-54
2024/04/07 09:15:30;;;;;;;6.90;1.65;;;;;;;;;;5114284;28;20040;-57
2024/04/07 09:17:56;;;;;;;;;;;;;;;;;;5112655;28;20059;-53
2024/04/07 09:20:21;;;;;;;4.77;1.10;;;;;;;;;;5132850;28;19916;-53
2024/04/07 09:22:47;;;;;;;4.88;0.98;;;;;;;;;;5132835;28;20024;-55
2024/04/07 09:25:13;;;;;;;;;;;;;;;;;;5113329;28;20077;-55
2024/04/07 09:27:39;;;;;;;3.57;0.87;;;;;;;;;;5133319;28;19908;-52
2024/04/07 09:30:05;;;;;;;5.47;1.10;;;;;;;;;;5132121;28;20035;-54
2024/04/07 09:32:31;;;;;;;3.70;0.93;;;;;;;;;;5132029;28;20031;-52
2024/04/07 09:34:57;;;;;;;3.28;0.80;;;;;;;;;;5132364;28;20069;-54
2024/04/07 09:37:22;;;;;;;;;;;;;;;;;;5134424;28;20061;-54
2024/04/07 09:39:48;;;;;;;1.47;0.77;;;;;;;;;;5132789;28;19912;-55
2024/04/07 09:42:18;;;;;;;4.10;0.90;;;;;;;;;;5115300;28;20045;-56
2024/04/07 09:44:45;;;;;;;4.83;1.00;;;;;;;;;;5133282;28;20046;-53
2024/04/07 09:47:12;;;;;;;4.40;0.87;;;;;;;;;;5131963;28;20084;-56
2024/04/07 09:49:40;;;;;;;4.57;0.90;;;;;;;;;;5115383;28;20034;-55
2024/04/07 09:52:07;;;;;;;2.80;0.80;;;;;;;;;;5131872;28;20095;-53
2024/04/07 09:54:44;;;;;;;7.23;1.00;;;;;;;;;;5131532;28;20032;-53
2024/04/07 09:57:10;;;;;;;2.83;1.10;;;;;;;;;;5130544;28;20028;-54
2024/04/07 09:59:39;;;;;;;2.97;0.70;;;;;;;;;;5132134;28;20034;-55
2024/04/07 10:02:06;;;;;;;2.80;0.77;;;;;;;;;;5131642;28;20051;-55
2024/04/07 10:04:32;;;;;;;4.13;1.07;;;;;;;;;;5132205;28;20027;-56
2024/04/07 10:07:00;;;;;;;5.28;0.95;;;;;;;;;;5132109;28;20031;-53
2024/04/07 10:09:25;;;;;;;3.10;0.82;;;;;;;;;;5132603;28;20042;-55
2024/04/07 10:11:51;;;;;;;4.90;0.88;;;;;;;;;;5131978;28;20095;-55
2024/04/07 10:14:17;;;;;;;6.07;1.30;;;;;;;;;;5132033;28;20069;-54
2024/04/07 10:16:43;;;;;;;4.70;1.00;;;;;;;;;;5132744;28;20027;-55
2024/04/07 10:19:09;;;;;;;5.20;0.65;;;;;;;;;;5132149;28;20100;-55
2024/04/07 10:21:34;;;;;;;6.47;0.80;;;;;;;;;;5132740;28;20027;-56
2024/04/07 10:24:01;;;;;;;5.07;0.73;;;;;;;;;;5131368;28;20027;-53
2024/04/07 10:26:28;;;;;;;3.05;0.80;;;;;;;;;;5132462;28;20102;-56
2024/04/07 10:28:55;;;;;;;3.30;0.60;;;;;;;;;;5132790;28;20062;-56
2024/04/07 10:31:25;;;;;;;7.68;1.10;;;;;;;;;;5131213;28;20099;-53
2024/04/07 10:33:51;;;;;;;4.45;0.80;;;;;;;;;;5132345;28;20027;-54
2024/04/07 10:36:18;;;;;;;3.50;0.70;;;;;;;;;;5132514;28;20054;-56
2024/04/07 10:38:48;;;;;;;5.10;1.10;;;;;;;;;;5132113;28;20100;-55
2024/04/07 10:41:17;;;;;;;2.58;0.60;;;;;;;;;;5131733;28;20047;-54
2024/04/07 10:43:44;;;;;;;2.63;0.73;;;;;;;;;;5131595;28;20034;-54
2024/04/07 10:46:09;;;;;;;3.55;0.93;;;;;;;;;;5131532;28;20027;-51
2024/04/07 10:48:35;;;;;;;2.75;0.77;;;;;;;;;;5130679;28;20038;-53
2024/04/07 10:51:03;;;;;;;15.68;1.33;;;;;;;;;;5130010;28;20043;-53
2024/04/07 10:53:29;;;;;;;4.97;0.63;;;;;;;;;;5130218;28;20031;-54
2024/04/07 10:55:54;;;;;;;4.75;0.93;;;;;;;;;;5113784;28;20023;-56
2024/04/07 10:58:21;;;;;;;2.60;0.70;;;;;;;;;;5131975;28;20042;-54
2024/04/07 11:00:47;;;;;;;3.13;0.82;;;;;;;;;;5130268;28;20039;-56
2024/04/07 11:03:13;;;;;;;3.58;0.77;;;;;;;;;;5131760;28;20027;-53
2024/04/07 11:05:39;;;;;;;1.73;0.73;;;;;;;;;;5131199;28;20051;-54
2024/04/07 11:08:04;;;;;;;3.35;0.88;;;;;;;;;;5130617;28;20039;-57
2024/04/07 11:10:36;;;;;;;2.63;0.80;;;;;;;;;;5130204;28;20161;-55
2024/04/07 11:13:02;;;;;;;2.63;0.80;;;;;;;;;;5130222;28;20031;-56
2024/04/07 11:15:28;;;;;;;3.00;0.85;;;;;;;;;;5130475;28;20028;-56
2024/04/07 11:17:53;;;;;;;4.18;0.75;;;;;;;;;;5130725;28;20028;-55
2024/04/07 11:20:18;;;;;;;2.38;0.73;;;;;;;;;;5130903;28;20059;-55
2024/04/07 11:22:44;;;;;;;4.22;0.70;;;;;;;;;;5127051;28;20034;-55
2024/04/07 11:25:09;;;;;;;2.92;0.70;;;;;;;;;;5131477;28;20043;-56
2024/04/07 11:27:34;;;;;;;5.22;0.75;;;;;;;;;;5129949;28;20082;-56
2024/04/07 11:30:01;;;;;;;2.42;0.63;;;;;;;;;;5130854;28;20043;-54
2024/04/07 11:32:27;;;;;;;3.83;0.85;;;;;;;;;;5127717;28;20047;-56
2024/04/07 11:34:53;;;;;;;1.90;0.70;;;;;;;;;;5129748;28;20039;-56
2024/04/07 11:37:19;;;;;;;1.95;0.60;;;;;;;;;;5130200;28;20053;-55
2024/04/07 11:39:50;;;;;;;2.10;0.70;;;;;;;;;;5112807;28;20040;-53
2024/04/07 11:42:15;;;;;;;3.33;0.55;;;;;;;;;;5130831;28;20015;-55
2024/04/07 11:44:40;;;;;;;4.13;0.82;;;;;;;;;;5128440;28;20030;-55
2024/04/07 11:47:06;;;;;;;3.00;0.63;;;;;;;;;;5130753;28;20030;-57
2024/04/07 11:49:33;;;;;;;2.95;0.68;;;;;;;;;;5129443;28;20047;-55
2024/04/07 11:51:58;;;;;;;1.30;0.43;;;;;;;;;;5131356;28;20035;-56
2024/04/07 11:54:23;;;;;;;2.15;0.65;;;;;;;;;;5130673;28;20043;-57
2024/04/07 11:56:51;;;;;;;2.65;0.70;;;;;;;;;;5130205;28;20024;-54
2024/04/07 11:59:16;;;;;;;1.48;0.50;;;;;;;;;;5128327;28;20032;-56
2024/04/07 12:01:41;;;;;;;2.17;0.95;;;;;;;;;;5111943;28;20080;-56
2024/04/07 12:04:07;;;;;;;1.77;0.85;;;;;;;;;;5107584;28;20044;-56
2024/04/07 12:06:32;;;;;;;6.60;1.00;;;;;;;;;;5127286;28;20065;-57
2024/04/07 12:08:57;;;;;;;1.95;0.63;;;;;;;;;;5127726;28;20027;-55
2024/04/07 12:11:23;;;;;;;2.25;0.70;;;;;;;;;;5130756;28;20031;-56
2024/04/07 12:13:48;;;;;;;3.60;0.80;;;;;;;;;;5127843;28;20058;-54
2024/04/07 12:16:13;;;;;;;3.92;0.63;;;;;;;;;;5128709;28;20015;-55
2024/04/07 12:18:39;;;;;;;7.20;1.25;;;;;;;;;;5130462;28;20059;-51
2024/04/07 12:21:04;;;;;;;2.40;0.60;;;;;;;;;;5131052;28;20463;-54
2024/04/07 12:23:29;;;;;;;2.35;0.82;;;;;;;;;;5127851;28;20085;-56
2024/04/07 12:25:55;;;;;;;4.18;0.75;;;;;;;;;;5130422;28;20035;-56
2024/04/07 12:28:21;;;;;;;1.20;0.52;;;;;;;;;;5130367;28;20047;-54
2024/04/07 12:30:50;;;;;;;4.22;0.75;;;;;;;;;;5131344;28;20024;-55
2024/04/07 12:33:15;;;;;;;1.92;0.93;;;;;;;;;;5127820;28;20075;-56
2024/04/07 12:35:42;;;;;;;1.63;0.40;;;;;;;;;;5130191;28;20114;-56
2024/04/07 12:38:08;;;;;;;1.65;0.50;;;;;;;;;;5127855;28;20024;-55
2024/04/07 12:40:33;;;;;;;2.80;0.55;;;;;;;;;;5127452;28;20023;-56
2024/04/07 12:43:01;;;;;;;3.08;0.40;;;;;;;;;;5128174;28;20031;-56
2024/04/07 12:45:27;;;;;;;2.63;0.60;;;;;;;;;;5129600;28;20039;-56
2024/04/07 12:47:53;;;;;;;1.50;0.43;;;;;;;;;;5129530;28;20113;-57
2024/04/07 12:50:18;;;;;;;2.22;0.45;;;;;;;;;;5128765;28;20023;-54
2024/04/07 12:52:47;;;;;;;2.47;0.40;;;;;;;;;;5130101;28;20028;-54
2024/04/07 12:55:13;;;;;;;1.92;0.60;;;;;;;;;;5130224;28;20031;-55
2024/04/07 12:57:38;;;;;;;4.22;0.68;;;;;;;;;;5129225;28;20040;-55
2024/04/07 13:00:14;;;;;;;3.08;0.63;;;;;;;;;;5110397;28;20040;-55
2024/04/07 13:02:41;;;;;;;0.80;0.52;;;;;;;;;;5129980;28;20032;-58
2024/04/07 13:05:07;;;;;;;1.33;0.43;;;;;;;;;;5127493;28;20039;-55
2024/04/07 13:07:32;;;;;;;2.28;0.57;;;;;;;;;;5130518;28;20050;-56
2024/04/07 13:09:58;;;;;;;2.78;0.63;;;;;;;;;;5128941;28;20015;-56
2024/04/07 13:12:24;;;;;;;2.10;0.68;;;;;;;;;;5129693;28;20049;-54
2024/04/07 13:14:49;;;;;;;3.30;0.70;;;;;;;;;;5129717;28;20043;-56
2024/04/07 13:17:14;;;;;;;3.97;0.80;;;;;;;;;;5131430;28;20106;-54
2024/04/07 13:19:40;;;;;;;1.13;0.45;;;;;;;;;;5133200;28;20027;-55
2024/04/07 13:22:05;;;;;;;5.00;1.05;;;;;;;;;;5114547;28;20028;-52
2024/04/07 13:24:32;;;;;;;2.10;0.77;;;;;;;;;;5132646;28;20087;-54
2024/04/07 13:26:58;;;;;;;2.65;0.68;;;;;;;;;;5133610;28;20034;-56
2024/04/07 13:29:24;;;;;;;4.05;1.23;;;;;;;;;;5133068;28;20027;-57
2024/04/07 13:31:49;;;;;;;3.40;1.33;;;;;;;;;;5113530;28;20032;-56
2024/04/07 13:34:15;;;;;;;2.15;1.23;;;;;;;;;;5132569;28;20107;-55
2024/04/07 13:36:40;;;;;;;2.97;1.08;;;;;;;;;;5133434;28;20028;-55
2024/04/07 13:39:10;;;;;;;4.88;0.68;;;;;;;;;;5113724;28;20077;-55
2024/04/07 13:41:37;;;;;;;5.07;1.15;;;;;;;;;;5132415;28;20019;-55
2024/04/07 13:44:02;;;;;;;4.18;1.45;;;;;;;;;;5131924;28;20049;-53
2024/04/07 13:46:28;;;;;;;3.33;0.88;;;;;;;;;;5133152;28;20035;-53
2024/04/07 13:48:53;;;;;;;2.78;0.70;;;;;;;;;;5132973;28;20065;-56
2024/04/07 13:51:19;;;;;;;3.20;0.90;;;;;;;;;;5133016;28;20024;-55
2024/04/07 13:53:44;;;;;;;8.82;1.05;;;;;;;;;;5133200;28;20047;-56
2024/04/07 13:56:09;;;;;;;1.60;0.40;;;;;;;;;;5133276;28;20036;-58
2024/04/07 13:58:35;;;;;;;2.95;0.50;;;;;;;;;;5131955;28;20035;-56
2024/04/07 14:01:02;;;;;;;2.20;0.70;;;;;;;;;;5133490;28;20023;-54
2024/04/07 14:03:28;;;;;;;2.38;0.60;;;;;;;;;;5131691;28;20047;-56
2024/04/07 14:05:53;;;;;;;2.92;0.70;;;;;;;;;;5133777;28;20038;-56
2024/04/07 14:08:19;;;;;;;3.72;1.40;;;;;;;;;;5130742;28;20032;-57
2024/04/07 14:10:47;;;;;;;5.03;2.33;;;;;;;;;;5130615;28;20035;-54
2024/04/07 14:13:13;;;;;;;4.35;1.65;;;;;;;;;;5133350;28;20027;-56
2024/04/07 14:15:38;;;;;;;2.92;0.55;;;;;;;;;;5130668;28;20051;-54
2024/04/07 14:18:04;;;;;;;2.63;0.77;;;;;;;;;;5115152;28;20028;-55
2024/04/07 14:20:30;;;;;;;3.20;0.98;;;;;;;;;;5133236;28;20019;-54
2024/04/07 14:22:55;;;;;;;3.63;1.45;;;;;;;;;;5115496;28;20035;-55
2024/04/07 14:25:20;;;;;;;1.90;0.60;;;;;;;;;;5132725;28;20027;-56
2024/04/07 14:27:48;;;;;;;3.85;0.88;;;;;;;;;;5132719;28;20032;-55
2024/04/07 14:30:13;;;;;;;1.40;0.55;;;;;;;;;;5132138;28;20064;-55
2024/04/07 14:32:38;;;;;;;2.20;0.55;;;;;;;;;;5132656;28;20057;-54
2024/04/07 14:35:03;;;;;;;4.07;0.60;;;;;;;;;;5132519;28;20027;-56
2024/04/07 14:37:29;;;;;;;1.35;0.47;;;;;;;;;;5132972;28;20050;-54